Hay River Airport
CYHY : now visible

Airfield :











YOU CAN JOIN US ON...

 
LOGIN :

Register | Disclaimer

   EN    FR    IT 

 









Legend :    VFR   Marginal VFR   IFR   Intensive IFR   Very Intensive IFR
Visi :
Ceiling :
>= 8 km
>= 3000ft
5 to 8 km
1000 to 3000 ft
1500m to 5 km
500 to 1000 ft
800 to 1500m
200 to 500 ft
< 800m
< 200 ft
Symbols :   Thunderstorms  Fog  Heavy snow  Heavy precipitations  Wind > 20 kt






- Airport Elevation : 543 ft
- IATA code : YHY


CYHY - Hay River

CURRENT METAR :
  • 150700Z 15003KT 15SM SCT210 M32/M35 A2989 RMK CI3 SLP148

EXPIRED METARs :
  • 150600Z 00000KT 15SM FEW210 M32/M35 A2991 RMK CI2 SLP155
  • 150500Z 21003KT 15SM FEW010 M31/M35 A2992 RMK SF2 SLP161

TAF AMD TAF CYHY
Valid from the 15 at 06:00 until the 15 at 18:00 UTC


150544Z 1506/1518 VRB03KT P6SM FEW010
PROB30 1506/1518 2SM IC BR BKN008 RMK NXT FCST BY 151200Z



MET'MAP, your aeronautical weather chart ! - Copyright ORBIFLY December 2007 - Disclaimer

ORBIFLY MET'MAP TEAM :

Programming & Development : Alexandra Zaïnal
Concept & original design : Baudouin d'Aumeries
Assistance for programming : Marc-Olivier Méhu
Technical & hardware support : Manuel Goepfert

Contact : metmap@orbifly.com




SOURCES & CREDITS :

   NOAA       Earth
Advisory